Jump to content


UNITED AIRLINES FLIGHT UA638 FLOWN ON 05-25-2017 BY CAPTAIN JIM BOERMAN

Pilot StatsCaptain Jim Boerman (LDP136) • 4,511.1 total hours • 1,375 total flights [View Logbook]
FLIGHT DETAILS
StatusReceived and approved on 2017-05-25 at 11:05:28
Origin AirportChicago-OHare Intl (KORD) • Chicago, Illinois, United States (668 feet MSL)
Filed Flight PlanFLIGHT PLANNER OFFLINE
Destination AirportPhiladelphia Intl (KPHL) • Philadelphia, Pennsylvania, United States (36 feet MSL)
Alternate AirportKennedy Intl (KJFK) • New York, New York, United States (13 feet MSL)
AirlineUnited Airlines
AircraftAirbus A319 (319 / A319)
FS Aircraft UsedFeelthere A319 IAE United Merger
Cruising AltitudeFL350
Distance Flown588 nautical miles
Passengers Onboard48 passengers (38.71% full)
DEPARTURE DETAILS
Time Out07:40:06
Taxi Data115,200 lbs total with 15,195 lbs of fuel onboard
Takeoff Data07:56:51 (17 minutes after leaving gate/ramp) • 113,908 lbs total • 7° pitch at 137 knots
Departure METARKORD 251151Z 34011KT 10SM BKN010 OVC020 13/10 A2958 RMK AO2 SLP015 T01280100 10133 20122 53011
ARRIVAL DETAILS
Landing Data10:34:51 • 106,446 lbs total • 7° pitch doing 115 knots at a rate of -105.35 feet/minute with 5,696 lbs of fuel onboard
Time In10:45:21 (11 minutes after landing)
Ramp Weight105,701 lbs total
Total Fuel Used9,499 lbs
Total Block Time02:03:00 (2.1 hours) while 27 minutes were spent on the ground
Arrival METARKPHL 251454Z 08012KT 6SM -RA BR OVC007 14/13 A2955 RMK AO2 RAE17B45 SLP005 P0000 60019 T01440133 58013 $
MISCELLANEOUS DETAILS
LiveDISPATCH Version4.8.3.1
FS Version
FSUIPC Version4.93
OS VersionWindows 7 32-bit
Screen Resolution1920 x 1080
Pilot's CommentsNo Comments Reported
FLIGHT MAP